Aviation Digital Data Service (ADDS)

Output produced by METARs form (1350 UTC 13 December 2019)
found at http://www.aviationweather.gov/metar/data/
 
METAR text: ZYHB 131300Z 30003MPS 240V320 6000 NSC M12/M14 Q1023 NOSIG
Conditions at: ZYHB (HARBIN , CN) observed 1300 UTC 13 December 2019
Temperature: -12.0°C (10°F)
Dewpoint: -14.0°C ( 7°F) [RH = 85%]
Pressure (altimeter): 30.21 inches Hg (1023.0 mb)
Winds: from the WNW (300 degrees) at 7 MPH (6 knots; 3.1 m/s)
Visibility: 4 miles ( 6 km)
Ceiling: at least 12,000 feet AGL
Clouds: sky clear below 12,000 feet AGL
Weather: no significant weather observed at this time

METAR text: ZYHB 131200Z 30002MPS 250V340 6000 NSC M11/M13 Q1021 NOSIG
Conditions at: ZYHB (HARBIN , CN) observed 1200 UTC 13 December 2019
Temperature: -11.0°C (12°F)
Dewpoint: -13.0°C ( 9°F) [RH = 85%]
Pressure (altimeter): 30.15 inches Hg (1021.0 mb)
Winds: from the WNW (300 degrees) at 5 MPH (4 knots; 2.1 m/s)
Visibility: 4 miles ( 6 km)
Ceiling: at least 12,000 feet AGL
Clouds: sky clear below 12,000 feet AGL
Weather: no significant weather observed at this time

METAR text: ZYHB 131100Z 29003MPS 230V310 4500 BR FEW020 M10/M12 Q1021 NOSIG
Conditions at: ZYHB (HARBIN , CN) observed 1100 UTC 13 December 2019
Temperature: -10.0°C (14°F)
Dewpoint: -12.0°C (10°F) [RH = 85%]
Pressure (altimeter): 30.15 inches Hg (1021.0 mb)
Winds: from the WNW (290 degrees) at 7 MPH (6 knots; 3.1 m/s)
Visibility: 2.80 miles (4.51 km)
Ceiling: at least 12,000 feet AGL
Clouds: few clouds at 2000 feet AGL
Weather: BR  (mist)

METAR text: ZYHB 131000Z 30003MPS 250V320 4500 BR OVC020 M10/M11 Q1020 NOSIG
Conditions at: ZYHB (HARBIN , CN) observed 1000 UTC 13 December 2019
Temperature: -10.0°C (14°F)
Dewpoint: -11.0°C (12°F) [RH = 92%]
Pressure (altimeter): 30.12 inches Hg (1020.0 mb)
Winds: from the WNW (300 degrees) at 7 MPH (6 knots; 3.1 m/s)
Visibility: 2.80 miles (4.51 km)
Ceiling: 2000 feet AGL
Clouds: overcast cloud deck at 2000 feet AGL
Weather: BR  (mist)

METAR text: ZYHB 130900Z 30003MPS 260V320 3000 -SN OVC020 M09/M10 Q1019 NOSIG
Conditions at: ZYHB (HARBIN , CN) observed 0900 UTC 13 December 2019
Temperature: -9.0°C (16°F)
Dewpoint: -10.0°C (14°F) [RH = 92%]
Pressure (altimeter): 30.09 inches Hg (1019.0 mb)
Winds: from the WNW (300 degrees) at 7 MPH (6 knots; 3.1 m/s)
Visibility: 1.86 miles (2.99 km)
Ceiling: 2000 feet AGL
Clouds: overcast cloud deck at 2000 feet AGL
Weather: -SN  (light snow)

METAR text: ZYHB 130800Z 31003MPS 260V330 3000 -SN OVC020 M07/M09 Q1019 NOSIG
Conditions at: ZYHB (HARBIN , CN) observed 0800 UTC 13 December 2019
Temperature: -7.0°C (19°F)
Dewpoint: -9.0°C (16°F) [RH = 86%]
Pressure (altimeter): 30.09 inches Hg (1019.0 mb)
Winds: from the NW (310 degrees) at 7 MPH (6 knots; 3.1 m/s)
Visibility: 1.86 miles (2.99 km)
Ceiling: 2000 feet AGL
Clouds: overcast cloud deck at 2000 feet AGL
Weather: -SN  (light snow)

METAR text: ZYHB 130700Z 30003MPS 4000 -SN OVC020 M07/M08 Q1017 NOSIG
Conditions at: ZYHB (HARBIN , CN) observed 0700 UTC 13 December 2019
Temperature: -7.0°C (19°F)
Dewpoint: -8.0°C (18°F) [RH = 93%]
Pressure (altimeter): 30.03 inches Hg (1017.0 mb)
Winds: from the WNW (300 degrees) at 7 MPH (6 knots; 3.1 m/s)
Visibility: 2.49 miles (4.01 km)
Ceiling: 2000 feet AGL
Clouds: overcast cloud deck at 2000 feet AGL
Weather: -SN  (light snow)

METAR text: ZYHB 130600Z 28003MPS 250V320 2000 -SN OVC020 M06/M07 Q1017 BECMG TL0700 3500
Conditions at: ZYHB (HARBIN , CN) observed 0600 UTC 13 December 2019
Temperature: -6.0°C (21°F)
Dewpoint: -7.0°C (19°F) [RH = 93%]
Pressure (altimeter): 30.03 inches Hg (1017.0 mb)
Winds: from the W (280 degrees) at 7 MPH (6 knots; 3.1 m/s)
Visibility: 1.24 miles (2.00 km)
Ceiling: 2000 feet AGL
Clouds: overcast cloud deck at 2000 feet AGL
Weather: -SN  (light snow)

METAR text: ZYHB 130500Z 25003MPS 1600 -SN OVC020 M06/M08 Q1016 RESN BECMG TL0630 3500
Conditions at: ZYHB (HARBIN , CN) observed 0500 UTC 13 December 2019
Temperature: -6.0°C (21°F)
Dewpoint: -8.0°C (18°F) [RH = 86%]
Pressure (altimeter): 30.00 inches Hg (1016.0 mb)
Winds: from the WSW (250 degrees) at 7 MPH (6 knots; 3.1 m/s)
Visibility: 0.99 miles (1.59 km)
Ceiling: 2000 feet AGL
Clouds: overcast cloud deck at 2000 feet AGL
Weather: -SN  (light snow)

METAR text: ZYHB 130400Z 23003MPS 1600 -SN OVC020 M06/M08 Q1016 RESN BECMG TL0530 3500
Conditions at: ZYHB (HARBIN , CN) observed 0400 UTC 13 December 2019
Temperature: -6.0°C (21°F)
Dewpoint: -8.0°C (18°F) [RH = 86%]
Pressure (altimeter): 30.00 inches Hg (1016.0 mb)
Winds: from the SW (230 degrees) at 7 MPH (6 knots; 3.1 m/s)
Visibility: 0.99 miles (1.59 km)
Ceiling: 2000 feet AGL
Clouds: overcast cloud deck at 2000 feet AGL
Weather: -SN  (light snow)

METAR text: ZYHB 130300Z 23003MPS 0700 R23/1100VP2000N SN OVC020 M07/M08 Q1016 BECMG TL0450 2000 -SN
Conditions at: ZYHB (HARBIN , CN) observed 0300 UTC 13 December 2019
Temperature: -7.0°C (19°F)
Dewpoint: -8.0°C (18°F) [RH = 93%]
Pressure (altimeter): 30.00 inches Hg (1016.0 mb)
Winds: from the SW (230 degrees) at 7 MPH (6 knots; 3.1 m/s)
Visibility: 0.43 miles (0.69 km)
Ceiling: 2000 feet AGL
Clouds: overcast cloud deck at 2000 feet AGL
Weather: SN  (moderate snow)

METAR text: ZYHB 130200Z 22003MPS 1400 R23/1300N -SN SCT010 OVC020 M07/M09 Q1016 BECMG TL0300 0700 SN
Conditions at: ZYHB (HARBIN , CN) observed 0200 UTC 13 December 2019
Temperature: -7.0°C (19°F)
Dewpoint: -9.0°C (16°F) [RH = 86%]
Pressure (altimeter): 30.00 inches Hg (1016.0 mb)
Winds: from the SW (220 degrees) at 7 MPH (6 knots; 3.1 m/s)
Visibility: 0.87 miles (1.40 km)
Ceiling: 2000 feet AGL
Clouds: scattered clouds at 1000 feet AGL
overcast cloud deck at 2000 feet AGL
Weather: -SN  (light snow)

METAR text: ZYHB 130100Z 21003MPS 2800 -SN BKN040 M08/M10 Q1016 BECMG TL0250 3500
Conditions at: ZYHB (HARBIN , CN) observed 0100 UTC 13 December 2019
Temperature: -8.0°C (18°F)
Dewpoint: -10.0°C (14°F) [RH = 85%]
Pressure (altimeter): 30.00 inches Hg (1016.0 mb)
Winds: from the SSW (210 degrees) at 7 MPH (6 knots; 3.1 m/s)
Visibility: 1.74 miles (2.80 km)
Ceiling: 4000 feet AGL
Clouds: broken clouds at 4000 feet AGL
Weather: -SN  (light snow)

METAR text: ZYHB 130000Z 20003MPS 9999 SCT040 M08/M11 Q1016 BECMG TL0130 2000 -SN
Conditions at: ZYHB (HARBIN , CN) observed 0000 UTC 13 December 2019
Temperature: -8.0°C (18°F)
Dewpoint: -11.0°C (12°F) [RH = 79%]
Pressure (altimeter): 30.00 inches Hg (1016.0 mb)
Winds: from the SSW (200 degrees) at 7 MPH (6 knots; 3.1 m/s)
Visibility: 6 or more miles (10+ km)
Ceiling: at least 12,000 feet AGL
Clouds: scattered clouds at 4000 feet AGL
Weather: no significant weather observed at this time

METAR text: ZYHB 122300Z 20003MPS CAVOK M09/M11 Q1015 BECMG TL0030 2000 -SN
Conditions at: ZYHB (HARBIN , CN) observed 2300 UTC 12 December 2019
Temperature: -9.0°C (16°F)
Dewpoint: -11.0°C (12°F) [RH = 85%]
Pressure (altimeter): 29.97 inches Hg (1015.0 mb)
Winds: from the SSW (200 degrees) at 7 MPH (6 knots; 3.1 m/s)
Visibility: 6 or more miles (10+ km)
Ceiling: ceiling and visibility are OK
Clouds: unknown
Weather: no significant weather observed at this time

METAR text: ZYHB 122200Z 21004MPS CAVOK M09/M12 Q1015 NOSIG
Conditions at: ZYHB (HARBIN , CN) observed 2200 UTC 12 December 2019
Temperature: -9.0°C (16°F)
Dewpoint: -12.0°C (10°F) [RH = 79%]
Pressure (altimeter): 29.97 inches Hg (1015.0 mb)
Winds: from the SSW (210 degrees) at 9 MPH (8 knots; 4.1 m/s)
Visibility: 6 or more miles (10+ km)
Ceiling: ceiling and visibility are OK
Clouds: unknown
Weather: no significant weather observed at this time

METAR text: ZYHB 122100Z 20004MPS CAVOK M09/M12 Q1015 NOSIG
Conditions at: ZYHB (HARBIN , CN) observed 2100 UTC 12 December 2019
Temperature: -9.0°C (16°F)
Dewpoint: -12.0°C (10°F) [RH = 79%]
Pressure (altimeter): 29.97 inches Hg (1015.0 mb)
Winds: from the SSW (200 degrees) at 9 MPH (8 knots; 4.1 m/s)
Visibility: 6 or more miles (10+ km)
Ceiling: ceiling and visibility are OK
Clouds: unknown
Weather: no significant weather observed at this time

METAR text: ZYHB 122000Z 21005MPS CAVOK M10/M13 Q1015 NOSIG
Conditions at: ZYHB (HARBIN , CN) observed 2000 UTC 12 December 2019
Temperature: -10.0°C (14°F)
Dewpoint: -13.0°C ( 9°F) [RH = 79%]
Pressure (altimeter): 29.97 inches Hg (1015.0 mb)
Winds: from the SSW (210 degrees) at 12 MPH (10 knots; 5.1 m/s)
Visibility: 6 or more miles (10+ km)
Ceiling: ceiling and visibility are OK
Clouds: unknown
Weather: no significant weather observed at this time

METAR text: ZYHB 121900Z 20004MPS CAVOK M10/M13 Q1016 NOSIG
Conditions at: ZYHB (HARBIN , CN) observed 1900 UTC 12 December 2019
Temperature: -10.0°C (14°F)
Dewpoint: -13.0°C ( 9°F) [RH = 79%]
Pressure (altimeter): 30.00 inches Hg (1016.0 mb)
Winds: from the SSW (200 degrees) at 9 MPH (8 knots; 4.1 m/s)
Visibility: 6 or more miles (10+ km)
Ceiling: ceiling and visibility are OK
Clouds: unknown
Weather: no significant weather observed at this time

METAR text: ZYHB 121800Z 19004MPS CAVOK M10/M14 Q1016 NOSIG
Conditions at: ZYHB (HARBIN , CN) observed 1800 UTC 12 December 2019
Temperature: -10.0°C (14°F)
Dewpoint: -14.0°C ( 7°F) [RH = 72%]
Pressure (altimeter): 30.00 inches Hg (1016.0 mb)
Winds: from the S (190 degrees) at 9 MPH (8 knots; 4.1 m/s)
Visibility: 6 or more miles (10+ km)
Ceiling: ceiling and visibility are OK
Clouds: unknown
Weather: no significant weather observed at this time

METAR text: ZYHB 121700Z 18004MPS CAVOK M10/M14 Q1016 NOSIG
Conditions at: ZYHB (HARBIN , CN) observed 1700 UTC 12 December 2019
Temperature: -10.0°C (14°F)
Dewpoint: -14.0°C ( 7°F) [RH = 72%]
Pressure (altimeter): 30.00 inches Hg (1016.0 mb)
Winds: from the S (180 degrees) at 9 MPH (8 knots; 4.1 m/s)
Visibility: 6 or more miles (10+ km)
Ceiling: ceiling and visibility are OK
Clouds: unknown
Weather: no significant weather observed at this time

METAR text: ZYHB 121600Z 19004MPS CAVOK M11/M14 Q1017 NOSIG
Conditions at: ZYHB (HARBIN , CN) observed 1600 UTC 12 December 2019
Temperature: -11.0°C (12°F)
Dewpoint: -14.0°C ( 7°F) [RH = 78%]
Pressure (altimeter): 30.03 inches Hg (1017.0 mb)
Winds: from the S (190 degrees) at 9 MPH (8 knots; 4.1 m/s)
Visibility: 6 or more miles (10+ km)
Ceiling: ceiling and visibility are OK
Clouds: unknown
Weather: no significant weather observed at this time

METAR text: ZYHB 121500Z 17004MPS CAVOK M11/M14 Q1017 NOSIG
Conditions at: ZYHB (HARBIN , CN) observed 1500 UTC 12 December 2019
Temperature: -11.0°C (12°F)
Dewpoint: -14.0°C ( 7°F) [RH = 78%]
Pressure (altimeter): 30.03 inches Hg (1017.0 mb)
Winds: from the S (170 degrees) at 9 MPH (8 knots; 4.1 m/s)
Visibility: 6 or more miles (10+ km)
Ceiling: ceiling and visibility are OK
Clouds: unknown
Weather: no significant weather observed at this time

METAR text: ZYHB 121400Z 18005MPS CAVOK M10/M14 Q1018 NOSIG
Conditions at: ZYHB (HARBIN , CN) observed 1400 UTC 12 December 2019
Temperature: -10.0°C (14°F)
Dewpoint: -14.0°C ( 7°F) [RH = 72%]
Pressure (altimeter): 30.06 inches Hg (1018.0 mb)
Winds: from the S (180 degrees) at 12 MPH (10 knots; 5.1 m/s)
Visibility: 6 or more miles (10+ km)
Ceiling: ceiling and visibility are OK
Clouds: unknown
Weather: no significant weather observed at this time

METAR text: ZYHB 121300Z 18005MPS CAVOK M11/M14 Q1019 NOSIG
Conditions at: ZYHB (HARBIN , CN) observed 1300 UTC 12 December 2019
Temperature: -11.0°C (12°F)
Dewpoint: -14.0°C ( 7°F) [RH = 78%]
Pressure (altimeter): 30.09 inches Hg (1019.0 mb)
Winds: from the S (180 degrees) at 12 MPH (10 knots; 5.1 m/s)
Visibility: 6 or more miles (10+ km)
Ceiling: ceiling and visibility are OK
Clouds: unknown
Weather: no significant weather observed at this time

METAR text: ZYHB 121200Z 18003MPS CAVOK M12/M15 Q1020 NOSIG
Conditions at: ZYHB (HARBIN , CN) observed 1200 UTC 12 December 2019
Temperature: -12.0°C (10°F)
Dewpoint: -15.0°C ( 5°F) [RH = 78%]
Pressure (altimeter): 30.12 inches Hg (1020.0 mb)
Winds: from the S (180 degrees) at 7 MPH (6 knots; 3.1 m/s)
Visibility: 6 or more miles (10+ km)
Ceiling: ceiling and visibility are OK
Clouds: unknown
Weather: no significant weather observed at this time

METAR text: ZYHB 121100Z 19005MPS CAVOK M10/M15 Q1020 NOSIG
Conditions at: ZYHB (HARBIN , CN) observed 1100 UTC 12 December 2019
Temperature: -10.0°C (14°F)
Dewpoint: -15.0°C ( 5°F) [RH = 67%]
Pressure (altimeter): 30.12 inches Hg (1020.0 mb)
Winds: from the S (190 degrees) at 12 MPH (10 knots; 5.1 m/s)
Visibility: 6 or more miles (10+ km)
Ceiling: ceiling and visibility are OK
Clouds: unknown
Weather: no significant weather observed at this time

METAR text: ZYHB 121000Z 19005MPS CAVOK M11/M15 Q1020 NOSIG
Conditions at: ZYHB (HARBIN , CN) observed 1000 UTC 12 December 2019
Temperature: -11.0°C (12°F)
Dewpoint: -15.0°C ( 5°F) [RH = 72%]
Pressure (altimeter): 30.12 inches Hg (1020.0 mb)
Winds: from the S (190 degrees) at 12 MPH (10 knots; 5.1 m/s)
Visibility: 6 or more miles (10+ km)
Ceiling: ceiling and visibility are OK
Clouds: unknown
Weather: no significant weather observed at this time

METAR text: ZYHB 120900Z 19004MPS CAVOK M10/M14 Q1020 NOSIG
Conditions at: ZYHB (HARBIN , CN) observed 0900 UTC 12 December 2019
Temperature: -10.0°C (14°F)
Dewpoint: -14.0°C ( 7°F) [RH = 72%]
Pressure (altimeter): 30.12 inches Hg (1020.0 mb)
Winds: from the S (190 degrees) at 9 MPH (8 knots; 4.1 m/s)
Visibility: 6 or more miles (10+ km)
Ceiling: ceiling and visibility are OK
Clouds: unknown
Weather: no significant weather observed at this time

METAR text: ZYHB 120800Z 19005MPS CAVOK M09/M14 Q1020 NOSIG
Conditions at: ZYHB (HARBIN , CN) observed 0800 UTC 12 December 2019
Temperature: -9.0°C (16°F)
Dewpoint: -14.0°C ( 7°F) [RH = 67%]
Pressure (altimeter): 30.12 inches Hg (1020.0 mb)
Winds: from the S (190 degrees) at 12 MPH (10 knots; 5.1 m/s)
Visibility: 6 or more miles (10+ km)
Ceiling: ceiling and visibility are OK
Clouds: unknown
Weather: no significant weather observed at this time

METAR text: ZYHB 120700Z 20005MPS CAVOK M08/M14 Q1021 NOSIG
Conditions at: ZYHB (HARBIN , CN) observed 0700 UTC 12 December 2019
Temperature: -8.0°C (18°F)
Dewpoint: -14.0°C ( 7°F) [RH = 62%]
Pressure (altimeter): 30.15 inches Hg (1021.0 mb)
Winds: from the SSW (200 degrees) at 12 MPH (10 knots; 5.1 m/s)
Visibility: 6 or more miles (10+ km)
Ceiling: ceiling and visibility are OK
Clouds: unknown
Weather: no significant weather observed at this time

METAR text: ZYHB 120600Z 20005MPS CAVOK M07/M13 Q1020 NOSIG
Conditions at: ZYHB (HARBIN , CN) observed 0600 UTC 12 December 2019
Temperature: -7.0°C (19°F)
Dewpoint: -13.0°C ( 9°F) [RH = 62%]
Pressure (altimeter): 30.12 inches Hg (1020.0 mb)
Winds: from the SSW (200 degrees) at 12 MPH (10 knots; 5.1 m/s)
Visibility: 6 or more miles (10+ km)
Ceiling: ceiling and visibility are OK
Clouds: unknown
Weather: no significant weather observed at this time

METAR text: ZYHB 120500Z 21005MPS CAVOK M07/M14 Q1021 NOSIG
Conditions at: ZYHB (HARBIN , CN) observed 0500 UTC 12 December 2019
Temperature: -7.0°C (19°F)
Dewpoint: -14.0°C ( 7°F) [RH = 57%]
Pressure (altimeter): 30.15 inches Hg (1021.0 mb)
Winds: from the SSW (210 degrees) at 12 MPH (10 knots; 5.1 m/s)
Visibility: 6 or more miles (10+ km)
Ceiling: ceiling and visibility are OK
Clouds: unknown
Weather: no significant weather observed at this time

METAR text: ZYHB 120400Z 22006MPS CAVOK M09/M14 Q1021 NOSIG
Conditions at: ZYHB (HARBIN , CN) observed 0400 UTC 12 December 2019
Temperature: -9.0°C (16°F)
Dewpoint: -14.0°C ( 7°F) [RH = 67%]
Pressure (altimeter): 30.15 inches Hg (1021.0 mb)
Winds: from the SW (220 degrees) at 14 MPH (12 knots; 6.2 m/s)
Visibility: 6 or more miles (10+ km)
Ceiling: ceiling and visibility are OK
Clouds: unknown
Weather: no significant weather observed at this time

METAR text: ZYHB 120300Z 22006MPS CAVOK M10/M14 Q1022 NOSIG
Conditions at: ZYHB (HARBIN , CN) observed 0300 UTC 12 December 2019
Temperature: -10.0°C (14°F)
Dewpoint: -14.0°C ( 7°F) [RH = 72%]
Pressure (altimeter): 30.18 inches Hg (1022.0 mb)
Winds: from the SW (220 degrees) at 14 MPH (12 knots; 6.2 m/s)
Visibility: 6 or more miles (10+ km)
Ceiling: ceiling and visibility are OK
Clouds: unknown
Weather: no significant weather observed at this time

METAR text: ZYHB 120200Z 22006MPS CAVOK M12/M15 Q1022 NOSIG
Conditions at: ZYHB (HARBIN , CN) observed 0200 UTC 12 December 2019
Temperature: -12.0°C (10°F)
Dewpoint: -15.0°C ( 5°F) [RH = 78%]
Pressure (altimeter): 30.18 inches Hg (1022.0 mb)
Winds: from the SW (220 degrees) at 14 MPH (12 knots; 6.2 m/s)
Visibility: 6 or more miles (10+ km)
Ceiling: ceiling and visibility are OK
Clouds: unknown
Weather: no significant weather observed at this time

Forecast for: ZYHB (HARBIN , CN)
Text: TAF ZYHB 130855Z 1312/1412 28004MPS 6000 BKN026 TXM04/06Z TNM15/22Z
Forecast period: 1200 UTC 13 December 2019 to 1200 UTC 14 December 2019
Forecast type: FROM: standard forecast or significant change
Winds: from the W (280 degrees) at 9 MPH (8 knots; 4.1 m/s)
Visibility: 4 miles (6 km)
Ceiling: 2600 feet AGL
Clouds: broken clouds at 2600 feet AGL
Weather: no significant weather forecast for this period